sensor_id;sensor_type;location;lat;lon;timestamp;temperature;humidity
16643;DHT22;8435;52.184;5.406;2022-12-18T00:02:03;-0.10;99.90
16643;DHT22;8435;52.184;5.406;2022-12-18T00:04:31;-0.10;99.90
16643;DHT22;8435;52.184;5.406;2022-12-18T00:06:58;-0.10;99.90
16643;DHT22;8435;52.184;5.406;2022-12-18T00:09:25;-0.20;99.90
16643;DHT22;8435;52.184;5.406;2022-12-18T00:11:51;-0.20;99.90
16643;DHT22;8435;52.184;5.406;2022-12-18T00:14:18;-0.20;99.90
16643;DHT22;8435;52.184;5.406;2022-12-18T00:16:46;-0.20;99.90
16643;DHT22;8435;52.184;5.406;2022-12-18T00:19:13;-0.20;99.90
16643;DHT22;8435;52.184;5.406;2022-12-18T00:21:43;-0.20;99.90
16643;DHT22;8435;52.184;5.406;2022-12-18T00:24:11;-0.20;99.90
16643;DHT22;8435;52.184;5.406;2022-12-18T00:26:38;-0.20;99.90
16643;DHT22;8435;52.184;5.406;2022-12-18T00:29:07;-0.20;99.90
16643;DHT22;8435;52.184;5.406;2022-12-18T00:31:34;-0.20;99.90
16643;DHT22;8435;52.184;5.406;2022-12-18T00:34:01;-0.30;99.90
16643;DHT22;8435;52.184;5.406;2022-12-18T00:36:30;-0.30;99.90
16643;DHT22;8435;52.184;5.406;2022-12-18T00:39:01;-0.30;99.90
16643;DHT22;8435;52.184;5.406;2022-12-18T00:41:28;-0.30;99.90
16643;DHT22;8435;52.184;5.406;2022-12-18T00:44:14;-0.30;99.90
16643;DHT22;8435;52.184;5.406;2022-12-18T00:46:41;-0.30;99.90
16643;DHT22;8435;52.184;5.406;2022-12-18T00:49:09;-0.30;99.90
16643;DHT22;8435;52.184;5.406;2022-12-18T00:51:39;-0.40;99.90
16643;DHT22;8435;52.184;5.406;2022-12-18T00:54:08;-0.40;99.90
16643;DHT22;8435;52.184;5.406;2022-12-18T00:56:36;-0.40;99.90
16643;DHT22;8435;52.184;5.406;2022-12-18T00:59:03;-0.40;99.90
16643;DHT22;8435;52.184;5.406;2022-12-18T01:01:31;-0.40;99.90
16643;DHT22;8435;52.184;5.406;2022-12-18T01:03:58;-0.50;99.90
16643;DHT22;8435;52.184;5.406;2022-12-18T01:06:25;-0.50;99.90
16643;DHT22;8435;52.184;5.406;2022-12-18T01:08:52;-0.50;99.90
16643;DHT22;8435;52.184;5.406;2022-12-18T01:11:21;-0.50;99.90
16643;DHT22;8435;52.184;5.406;2022-12-18T01:13:48;-0.60;99.90
16643;DHT22;8435;52.184;5.406;2022-12-18T01:16:16;-0.60;99.90
16643;DHT22;8435;52.184;5.406;2022-12-18T01:18:46;-0.50;99.90
16643;DHT22;8435;52.184;5.406;2022-12-18T01:21:15;-0.50;99.90
16643;DHT22;8435;52.184;5.406;2022-12-18T01:23:42;-0.50;99.90
16643;DHT22;8435;52.184;5.406;2022-12-18T01:26:11;-0.50;99.90
16643;DHT22;8435;52.184;5.406;2022-12-18T01:28:39;-0.60;99.90
16643;DHT22;8435;52.184;5.406;2022-12-18T01:31:14;-0.60;99.90
16643;DHT22;8435;52.184;5.406;2022-12-18T01:33:41;-0.60;99.90
16643;DHT22;8435;52.184;5.406;2022-12-18T01:36:13;-0.60;99.90
16643;DHT22;8435;52.184;5.406;2022-12-18T01:38:40;-0.60;99.90
16643;DHT22;8435;52.184;5.406;2022-12-18T01:41:08;-0.60;99.90
16643;DHT22;8435;52.184;5.406;2022-12-18T01:43:46;-0.60;99.90
16643;DHT22;8435;52.184;5.406;2022-12-18T01:46:13;-0.60;99.90
16643;DHT22;8435;52.184;5.406;2022-12-18T01:48:40;-0.60;99.90
16643;DHT22;8435;52.184;5.406;2022-12-18T01:51:10;-0.60;99.90
16643;DHT22;8435;52.184;5.406;2022-12-18T01:53:37;-0.60;99.90
16643;DHT22;8435;52.184;5.406;2022-12-18T01:56:06;-0.60;99.90
16643;DHT22;8435;52.184;5.406;2022-12-18T01:58:39;-0.70;99.90
16643;DHT22;8435;52.184;5.406;2022-12-18T02:01:09;-0.70;99.90
16643;DHT22;8435;52.184;5.406;2022-12-18T02:03:35;-0.70;99.90
16643;DHT22;8435;52.184;5.406;2022-12-18T02:06:09;-0.70;99.90
16643;DHT22;8435;52.184;5.406;2022-12-18T02:08:43;-0.70;99.90
16643;DHT22;8435;52.184;5.406;2022-12-18T02:11:20;-0.70;99.90
16643;DHT22;8435;52.184;5.406;2022-12-18T02:13:54;-0.80;99.90
16643;DHT22;8435;52.184;5.406;2022-12-18T02:16:33;-0.80;99.90
16643;DHT22;8435;52.184;5.406;2022-12-18T02:19:05;-0.80;99.90
16643;DHT22;8435;52.184;5.406;2022-12-18T02:21:36;-0.90;99.90
16643;DHT22;8435;52.184;5.406;2022-12-18T02:24:18;-0.90;99.90
16643;DHT22;8435;52.184;5.406;2022-12-18T02:26:55;-0.90;99.90
16643;DHT22;8435;52.184;5.406;2022-12-18T02:29:24;-1.00;99.90
16643;DHT22;8435;52.184;5.406;2022-12-18T02:31:56;-1.00;99.90
16643;DHT22;8435;52.184;5.406;2022-12-18T02:34:28;-1.00;99.90
16643;DHT22;8435;52.184;5.406;2022-12-18T02:36:57;-1.10;99.90
16643;DHT22;8435;52.184;5.406;2022-12-18T02:39:26;-1.10;99.90
16643;DHT22;8435;52.184;5.406;2022-12-18T02:41:56;-1.10;99.90
16643;DHT22;8435;52.184;5.406;2022-12-18T02:44:24;-1.10;99.90
16643;DHT22;8435;52.184;5.406;2022-12-18T02:46:52;-1.10;99.90
16643;DHT22;8435;52.184;5.406;2022-12-18T02:49:34;-1.20;99.90
16643;DHT22;8435;52.184;5.406;2022-12-18T02:52:09;-1.20;99.90
16643;DHT22;8435;52.184;5.406;2022-12-18T02:54:49;-1.20;99.90
16643;DHT22;8435;52.184;5.406;2022-12-18T02:57:24;-1.20;99.90
16643;DHT22;8435;52.184;5.406;2022-12-18T02:59:58;-1.20;99.90
16643;DHT22;8435;52.184;5.406;2022-12-18T03:02:31;-1.30;99.90
16643;DHT22;8435;52.184;5.406;2022-12-18T03:05:03;-1.30;99.90
16643;DHT22;8435;52.184;5.406;2022-12-18T03:07:38;-1.30;99.90
16643;DHT22;8435;52.184;5.406;2022-12-18T03:10:09;-1.30;99.90
16643;DHT22;8435;52.184;5.406;2022-12-18T03:12:43;-1.30;99.90
16643;DHT22;8435;52.184;5.406;2022-12-18T03:15:16;-1.30;99.90
16643;DHT22;8435;52.184;5.406;2022-12-18T03:17:50;-1.40;99.90
16643;DHT22;8435;52.184;5.406;2022-12-18T03:20:20;-1.40;99.90
16643;DHT22;8435;52.184;5.406;2022-12-18T03:22:51;-1.40;99.90
16643;DHT22;8435;52.184;5.406;2022-12-18T03:25:20;-1.40;99.90
16643;DHT22;8435;52.184;5.406;2022-12-18T03:27:51;-1.50;99.90
16643;DHT22;8435;52.184;5.406;2022-12-18T03:30:21;-1.50;99.90
16643;DHT22;8435;52.184;5.406;2022-12-18T03:32:52;-1.50;99.90
16643;DHT22;8435;52.184;5.406;2022-12-18T03:35:23;-1.50;99.90
16643;DHT22;8435;52.184;5.406;2022-12-18T03:37:50;-1.50;99.90
16643;DHT22;8435;52.184;5.406;2022-12-18T03:40:17;-1.50;99.90
16643;DHT22;8435;52.184;5.406;2022-12-18T03:42:51;-1.60;99.90
16643;DHT22;8435;52.184;5.406;2022-12-18T03:45:22;-1.60;99.90
16643;DHT22;8435;52.184;5.406;2022-12-18T03:47:59;-1.60;99.90
16643;DHT22;8435;52.184;5.406;2022-12-18T03:50:33;-1.60;99.90
16643;DHT22;8435;52.184;5.406;2022-12-18T03:53:09;-1.70;99.90
16643;DHT22;8435;52.184;5.406;2022-12-18T03:55:41;-1.70;99.90
16643;DHT22;8435;52.184;5.406;2022-12-18T03:58:11;-1.70;99.90
16643;DHT22;8435;52.184;5.406;2022-12-18T04:00:40;-1.70;99.90
16643;DHT22;8435;52.184;5.406;2022-12-18T04:03:08;-1.70;99.90
16643;DHT22;8435;52.184;5.406;2022-12-18T04:05:36;-1.70;99.90
16643;DHT22;8435;52.184;5.406;2022-12-18T04:08:03;-1.80;99.90
16643;DHT22;8435;52.184;5.406;2022-12-18T04:10:31;-1.80;99.90
16643;DHT22;8435;52.184;5.406;2022-12-18T04:12:58;-1.80;99.90
16643;DHT22;8435;52.184;5.406;2022-12-18T04:15:26;-1.80;99.90
16643;DHT22;8435;52.184;5.406;2022-12-18T04:17:53;-1.90;99.90
16643;DHT22;8435;52.184;5.406;2022-12-18T04:20:19;-1.90;99.90
16643;DHT22;8435;52.184;5.406;2022-12-18T04:22:47;-1.90;99.90
16643;DHT22;8435;52.184;5.406;2022-12-18T04:25:14;-1.90;99.90
16643;DHT22;8435;52.184;5.406;2022-12-18T04:27:41;-1.90;99.90
16643;DHT22;8435;52.184;5.406;2022-12-18T04:30:08;-1.90;99.90
16643;DHT22;8435;52.184;5.406;2022-12-18T04:32:36;-2.00;99.90
16643;DHT22;8435;52.184;5.406;2022-12-18T04:35:04;-2.00;99.90
16643;DHT22;8435;52.184;5.406;2022-12-18T04:37:33;-2.00;99.90
16643;DHT22;8435;52.184;5.406;2022-12-18T04:40:00;-2.00;99.90
16643;DHT22;8435;52.184;5.406;2022-12-18T04:42:27;-2.00;99.90
16643;DHT22;8435;52.184;5.406;2022-12-18T04:44:54;-2.10;99.90
16643;DHT22;8435;52.184;5.406;2022-12-18T04:47:20;-2.10;99.90
16643;DHT22;8435;52.184;5.406;2022-12-18T04:49:48;-2.10;99.90
16643;DHT22;8435;52.184;5.406;2022-12-18T04:52:15;-2.10;99.90
16643;DHT22;8435;52.184;5.406;2022-12-18T04:54:42;-2.10;99.90
16643;DHT22;8435;52.184;5.406;2022-12-18T04:57:08;-2.10;99.90
16643;DHT22;8435;52.184;5.406;2022-12-18T04:59:35;-2.10;99.90
16643;DHT22;8435;52.184;5.406;2022-12-18T05:02:02;-2.10;99.90
16643;DHT22;8435;52.184;5.406;2022-12-18T05:04:29;-2.20;99.90
16643;DHT22;8435;52.184;5.406;2022-12-18T05:06:57;-2.20;99.90
16643;DHT22;8435;52.184;5.406;2022-12-18T05:09:23;-2.20;99.90
16643;DHT22;8435;52.184;5.406;2022-12-18T05:11:50;-2.20;99.90
16643;DHT22;8435;52.184;5.406;2022-12-18T05:14:17;-2.20;99.90
16643;DHT22;8435;52.184;5.406;2022-12-18T05:16:44;-2.20;99.90
16643;DHT22;8435;52.184;5.406;2022-12-18T05:19:10;-2.20;99.90
16643;DHT22;8435;52.184;5.406;2022-12-18T05:21:37;-2.20;99.90
16643;DHT22;8435;52.184;5.406;2022-12-18T05:24:06;-2.20;99.90
16643;DHT22;8435;52.184;5.406;2022-12-18T05:26:33;-2.30;99.90
16643;DHT22;8435;52.184;5.406;2022-12-18T05:28:59;-2.20;99.90
16643;DHT22;8435;52.184;5.406;2022-12-18T05:31:26;-2.20;99.90
16643;DHT22;8435;52.184;5.406;2022-12-18T05:33:53;-2.30;99.90
16643;DHT22;8435;52.184;5.406;2022-12-18T05:36:20;-2.30;99.90
16643;DHT22;8435;52.184;5.406;2022-12-18T05:38:46;-2.30;99.90
16643;DHT22;8435;52.184;5.406;2022-12-18T05:41:15;-2.30;99.90
16643;DHT22;8435;52.184;5.406;2022-12-18T05:43:42;-2.30;99.90
16643;DHT22;8435;52.184;5.406;2022-12-18T05:46:12;-2.30;99.90
16643;DHT22;8435;52.184;5.406;2022-12-18T05:48:40;-2.30;99.90
16643;DHT22;8435;52.184;5.406;2022-12-18T05:51:09;-2.30;99.90
16643;DHT22;8435;52.184;5.406;2022-12-18T05:53:36;-2.30;99.90
16643;DHT22;8435;52.184;5.406;2022-12-18T05:56:06;-2.40;99.90
16643;DHT22;8435;52.184;5.406;2022-12-18T05:58:34;-2.40;99.90
16643;DHT22;8435;52.184;5.406;2022-12-18T06:01:07;-2.40;99.90
16643;DHT22;8435;52.184;5.406;2022-12-18T06:03:34;-2.40;99.90
16643;DHT22;8435;52.184;5.406;2022-12-18T06:06:01;-2.40;99.90
16643;DHT22;8435;52.184;5.406;2022-12-18T06:08:27;-2.40;99.90
16643;DHT22;8435;52.184;5.406;2022-12-18T06:10:54;-2.40;99.90
16643;DHT22;8435;52.184;5.406;2022-12-18T06:13:21;-2.40;99.90
16643;DHT22;8435;52.184;5.406;2022-12-18T06:15:49;-2.50;99.90
16643;DHT22;8435;52.184;5.406;2022-12-18T06:18:16;-2.40;99.90
16643;DHT22;8435;52.184;5.406;2022-12-18T06:20:43;-2.50;99.90
16643;DHT22;8435;52.184;5.406;2022-12-18T06:23:09;-2.50;99.90
16643;DHT22;8435;52.184;5.406;2022-12-18T06:25:38;-2.50;99.90
16643;DHT22;8435;52.184;5.406;2022-12-18T06:28:05;-2.50;99.90
16643;DHT22;8435;52.184;5.406;2022-12-18T06:30:32;-2.50;99.90
16643;DHT22;8435;52.184;5.406;2022-12-18T06:33:00;-2.50;99.90
16643;DHT22;8435;52.184;5.406;2022-12-18T06:35:27;-2.60;99.90
16643;DHT22;8435;52.184;5.406;2022-12-18T06:37:54;-2.60;99.90
16643;DHT22;8435;52.184;5.406;2022-12-18T06:40:20;-2.60;99.90
16643;DHT22;8435;52.184;5.406;2022-12-18T06:42:47;-2.60;99.90
16643;DHT22;8435;52.184;5.406;2022-12-18T06:45:14;-2.60;99.90
16643;DHT22;8435;52.184;5.406;2022-12-18T06:47:41;-2.60;99.90
16643;DHT22;8435;52.184;5.406;2022-12-18T06:50:09;-2.60;99.90
16643;DHT22;8435;52.184;5.406;2022-12-18T06:52:36;-2.60;99.90
16643;DHT22;8435;52.184;5.406;2022-12-18T06:55:05;-2.70;99.90
16643;DHT22;8435;52.184;5.406;2022-12-18T06:57:37;-2.70;99.90
16643;DHT22;8435;52.184;5.406;2022-12-18T07:00:05;-2.70;99.90
16643;DHT22;8435;52.184;5.406;2022-12-18T07:02:32;-2.70;99.90
16643;DHT22;8435;52.184;5.406;2022-12-18T07:04:59;-2.70;99.90
16643;DHT22;8435;52.184;5.406;2022-12-18T07:07:28;-2.70;99.90
16643;DHT22;8435;52.184;5.406;2022-12-18T07:09:54;-2.70;99.90
16643;DHT22;8435;52.184;5.406;2022-12-18T07:12:21;-2.70;99.90
16643;DHT22;8435;52.184;5.406;2022-12-18T07:14:48;-2.70;99.90
16643;DHT22;8435;52.184;5.406;2022-12-18T07:17:14;-2.70;99.90
16643;DHT22;8435;52.184;5.406;2022-12-18T07:19:41;-2.70;99.90
16643;DHT22;8435;52.184;5.406;2022-12-18T07:22:08;-2.70;99.90
16643;DHT22;8435;52.184;5.406;2022-12-18T07:24:36;-2.70;99.90
16643;DHT22;8435;52.184;5.406;2022-12-18T07:27:03;-2.70;99.90
16643;DHT22;8435;52.184;5.406;2022-12-18T07:29:29;-2.70;99.90
16643;DHT22;8435;52.184;5.406;2022-12-18T07:31:56;-2.70;99.90
16643;DHT22;8435;52.184;5.406;2022-12-18T07:34:23;-2.70;99.90
16643;DHT22;8435;52.184;5.406;2022-12-18T07:36:50;-2.70;99.90
16643;DHT22;8435;52.184;5.406;2022-12-18T07:39:17;-2.80;99.90
16643;DHT22;8435;52.184;5.406;2022-12-18T07:41:45;-2.80;99.90
16643;DHT22;8435;52.184;5.406;2022-12-18T07:44:32;-2.70;99.90
16643;DHT22;8435;52.184;5.406;2022-12-18T07:46:58;-2.80;99.90
16643;DHT22;8435;52.184;5.406;2022-12-18T07:49:25;-2.80;99.90
16643;DHT22;8435;52.184;5.406;2022-12-18T07:51:54;-2.80;99.90
16643;DHT22;8435;52.184;5.406;2022-12-18T07:54:21;-2.80;99.90
16643;DHT22;8435;52.184;5.406;2022-12-18T07:56:50;-2.80;99.90
16643;DHT22;8435;52.184;5.406;2022-12-18T07:59:17;-2.70;99.90
16643;DHT22;8435;52.184;5.406;2022-12-18T08:01:44;-2.80;99.90
16643;DHT22;8435;52.184;5.406;2022-12-18T08:04:10;-2.70;99.90
16643;DHT22;8435;52.184;5.406;2022-12-18T08:06:37;-2.70;99.90
16643;DHT22;8435;52.184;5.406;2022-12-18T08:09:04;-2.70;99.90
16643;DHT22;8435;52.184;5.406;2022-12-18T08:11:31;-2.70;99.90
16643;DHT22;8435;52.184;5.406;2022-12-18T08:13:59;-2.70;99.90
16643;DHT22;8435;52.184;5.406;2022-12-18T08:16:26;-2.60;99.90
16643;DHT22;8435;52.184;5.406;2022-12-18T08:18:53;-2.60;99.90
16643;DHT22;8435;52.184;5.406;2022-12-18T08:21:22;-2.50;99.90
16643;DHT22;8435;52.184;5.406;2022-12-18T08:23:49;-2.40;99.90
16643;DHT22;8435;52.184;5.406;2022-12-18T08:26:16;-2.40;99.90
16643;DHT22;8435;52.184;5.406;2022-12-18T08:28:43;-2.30;99.90
16643;DHT22;8435;52.184;5.406;2022-12-18T08:31:11;-2.30;99.90
16643;DHT22;8435;52.184;5.406;2022-12-18T08:33:39;-2.20;99.90
16643;DHT22;8435;52.184;5.406;2022-12-18T08:36:08;-2.20;99.90
16643;DHT22;8435;52.184;5.406;2022-12-18T08:38:34;-2.10;99.90
16643;DHT22;8435;52.184;5.406;2022-12-18T08:41:02;-2.10;99.90
16643;DHT22;8435;52.184;5.406;2022-12-18T08:43:29;-2.00;99.90
16643;DHT22;8435;52.184;5.406;2022-12-18T08:46:15;-2.00;99.90
16643;DHT22;8435;52.184;5.406;2022-12-18T08:48:42;-2.00;99.90
16643;DHT22;8435;52.184;5.406;2022-12-18T08:51:09;-1.90;99.90
16643;DHT22;8435;52.184;5.406;2022-12-18T08:53:36;-1.90;99.90
16643;DHT22;8435;52.184;5.406;2022-12-18T08:56:03;-1.80;99.90
16643;DHT22;8435;52.184;5.406;2022-12-18T08:58:30;-1.80;99.90
16643;DHT22;8435;52.184;5.406;2022-12-18T09:01:00;-1.80;99.90
16643;DHT22;8435;52.184;5.406;2022-12-18T09:03:28;-1.70;99.90
16643;DHT22;8435;52.184;5.406;2022-12-18T09:05:55;-1.70;99.90
16643;DHT22;8435;52.184;5.406;2022-12-18T09:08:22;-1.70;99.90
16643;DHT22;8435;52.184;5.406;2022-12-18T09:10:50;-1.60;99.90
16643;DHT22;8435;52.184;5.406;2022-12-18T09:13:18;-1.60;99.90
16643;DHT22;8435;52.184;5.406;2022-12-18T09:15:46;-1.50;99.90
16643;DHT22;8435;52.184;5.406;2022-12-18T09:18:14;-1.50;99.90
16643;DHT22;8435;52.184;5.406;2022-12-18T09:20:43;-1.40;99.90
16643;DHT22;8435;52.184;5.406;2022-12-18T09:23:10;-1.40;99.90
16643;DHT22;8435;52.184;5.406;2022-12-18T09:25:37;-1.30;99.90
16643;DHT22;8435;52.184;5.406;2022-12-18T09:28:06;-1.30;99.90
16643;DHT22;8435;52.184;5.406;2022-12-18T09:30:33;-1.20;99.90
16643;DHT22;8435;52.184;5.406;2022-12-18T09:33:00;-1.20;99.90
16643;DHT22;8435;52.184;5.406;2022-12-18T09:35:27;-1.10;99.90
16643;DHT22;8435;52.184;5.406;2022-12-18T09:37:55;-1.00;99.90
16643;DHT22;8435;52.184;5.406;2022-12-18T09:40:25;-1.00;99.90
16643;DHT22;8435;52.184;5.406;2022-12-18T09:42:56;-0.90;99.90
16643;DHT22;8435;52.184;5.406;2022-12-18T09:45:24;-0.90;99.90
16643;DHT22;8435;52.184;5.406;2022-12-18T09:47:52;-0.80;99.90
16643;DHT22;8435;52.184;5.406;2022-12-18T09:50:24;-0.70;99.90
16643;DHT22;8435;52.184;5.406;2022-12-18T09:52:56;-0.70;99.90
16643;DHT22;8435;52.184;5.406;2022-12-18T09:55:28;-0.70;99.90
16643;DHT22;8435;52.184;5.406;2022-12-18T09:57:59;-0.60;99.90
16643;DHT22;8435;52.184;5.406;2022-12-18T10:00:27;-0.60;99.90
16643;DHT22;8435;52.184;5.406;2022-12-18T10:03:00;-0.50;99.90
16643;DHT22;8435;52.184;5.406;2022-12-18T10:05:35;-0.50;99.90
16643;DHT22;8435;52.184;5.406;2022-12-18T10:08:10;-0.40;99.90
16643;DHT22;8435;52.184;5.406;2022-12-18T10:10:43;-0.30;99.90
16643;DHT22;8435;52.184;5.406;2022-12-18T10:13:22;-0.30;99.90
16643;DHT22;8435;52.184;5.406;2022-12-18T10:15:58;-0.20;99.90
16643;DHT22;8435;52.184;5.406;2022-12-18T10:18:37;-0.20;99.90
16643;DHT22;8435;52.184;5.406;2022-12-18T10:21:10;-0.10;99.90
16643;DHT22;8435;52.184;5.406;2022-12-18T10:23:47;0.00;99.90
16643;DHT22;8435;52.184;5.406;2022-12-18T10:26:17;0.00;99.90
16643;DHT22;8435;52.184;5.406;2022-12-18T10:28:45;0.10;99.90
16643;DHT22;8435;52.184;5.406;2022-12-18T10:31:15;0.20;99.90
16643;DHT22;8435;52.184;5.406;2022-12-18T10:33:43;0.20;99.90
16643;DHT22;8435;52.184;5.406;2022-12-18T10:36:10;0.30;99.90
16643;DHT22;8435;52.184;5.406;2022-12-18T10:38:37;0.40;99.90
16643;DHT22;8435;52.184;5.406;2022-12-18T10:41:06;0.40;99.90
16643;DHT22;8435;52.184;5.406;2022-12-18T10:43:39;0.50;99.90
16643;DHT22;8435;52.184;5.406;2022-12-18T10:46:14;0.50;99.90
16643;DHT22;8435;52.184;5.406;2022-12-18T10:48:53;0.60;99.90
16643;DHT22;8435;52.184;5.406;2022-12-18T10:51:23;0.70;99.90
16643;DHT22;8435;52.184;5.406;2022-12-18T10:53:56;0.70;99.90
16643;DHT22;8435;52.184;5.406;2022-12-18T10:56:27;0.80;99.90
16643;DHT22;8435;52.184;5.406;2022-12-18T10:59:02;0.80;99.90
16643;DHT22;8435;52.184;5.406;2022-12-18T11:01:46;0.90;99.90
16643;DHT22;8435;52.184;5.406;2022-12-18T11:04:17;0.90;99.90
16643;DHT22;8435;52.184;5.406;2022-12-18T11:06:57;1.00;99.90
16643;DHT22;8435;52.184;5.406;2022-12-18T11:09:26;1.00;99.90
16643;DHT22;8435;52.184;5.406;2022-12-18T11:11:55;1.10;99.90
16643;DHT22;8435;52.184;5.406;2022-12-18T11:14:25;1.10;99.90
16643;DHT22;8435;52.184;5.406;2022-12-18T11:16:53;1.20;99.90
16643;DHT22;8435;52.184;5.406;2022-12-18T11:19:34;1.20;99.90
16643;DHT22;8435;52.184;5.406;2022-12-18T11:22:04;1.30;99.90
16643;DHT22;8435;52.184;5.406;2022-12-18T11:24:52;1.30;99.90
16643;DHT22;8435;52.184;5.406;2022-12-18T11:27:21;1.30;99.90
16643;DHT22;8435;52.184;5.406;2022-12-18T11:29:50;1.40;99.90
16643;DHT22;8435;52.184;5.406;2022-12-18T11:32:29;1.40;99.90
16643;DHT22;8435;52.184;5.406;2022-12-18T11:35:02;1.50;99.90
16643;DHT22;8435;52.184;5.406;2022-12-18T11:37:30;1.50;99.90
16643;DHT22;8435;52.184;5.406;2022-12-18T11:40:00;1.50;99.90
16643;DHT22;8435;52.184;5.406;2022-12-18T11:42:34;1.60;99.90
16643;DHT22;8435;52.184;5.406;2022-12-18T11:45:08;1.60;99.90
16643;DHT22;8435;52.184;5.406;2022-12-18T11:47:45;1.70;99.80
16643;DHT22;8435;52.184;5.406;2022-12-18T11:50:15;1.70;99.80
16643;DHT22;8435;52.184;5.406;2022-12-18T11:52:43;1.70;99.70
16643;DHT22;8435;52.184;5.406;2022-12-18T11:55:12;1.80;99.70
16643;DHT22;8435;52.184;5.406;2022-12-18T11:57:49;1.80;99.70
16643;DHT22;8435;52.184;5.406;2022-12-18T12:00:18;1.80;99.70
16643;DHT22;8435;52.184;5.406;2022-12-18T12:03:18;1.90;99.50
16643;DHT22;8435;52.184;5.406;2022-12-18T12:05:57;1.90;99.40
16643;DHT22;8435;52.184;5.406;2022-12-18T12:08:35;1.90;99.40
16643;DHT22;8435;52.184;5.406;2022-12-18T12:11:10;2.00;99.40
16643;DHT22;8435;52.184;5.406;2022-12-18T12:13:49;2.00;99.30
16643;DHT22;8435;52.184;5.406;2022-12-18T12:16:24;2.10;99.40
16643;DHT22;8435;52.184;5.406;2022-12-18T12:19:01;2.10;99.20
16643;DHT22;8435;52.184;5.406;2022-12-18T12:21:36;2.10;99.20
16643;DHT22;8435;52.184;5.406;2022-12-18T12:24:17;2.10;99.20
16643;DHT22;8435;52.184;5.406;2022-12-18T12:26:54;2.10;99.10
16643;DHT22;8435;52.184;5.406;2022-12-18T12:29:36;2.20;99.10
16643;DHT22;8435;52.184;5.406;2022-12-18T12:32:15;2.20;99.00
16643;DHT22;8435;52.184;5.406;2022-12-18T12:34:53;2.20;98.90
16643;DHT22;8435;52.184;5.406;2022-12-18T12:37:29;2.20;98.90
16643;DHT22;8435;52.184;5.406;2022-12-18T12:40:02;2.30;98.80
16643;DHT22;8435;52.184;5.406;2022-12-18T12:42:32;2.20;98.90
16643;DHT22;8435;52.184;5.406;2022-12-18T12:45:24;2.20;98.80
16643;DHT22;8435;52.184;5.406;2022-12-18T12:47:53;2.30;98.90
16643;DHT22;8435;52.184;5.406;2022-12-18T12:50:22;2.30;98.90
16643;DHT22;8435;52.184;5.406;2022-12-18T12:52:51;2.30;98.90
16643;DHT22;8435;52.184;5.406;2022-12-18T12:55:21;2.30;98.80
16643;DHT22;8435;52.184;5.406;2022-12-18T12:57:56;2.40;98.60
16643;DHT22;8435;52.184;5.406;2022-12-18T13:00:31;2.30;98.60
16643;DHT22;8435;52.184;5.406;2022-12-18T13:03:08;2.40;98.70
16643;DHT22;8435;52.184;5.406;2022-12-18T13:05:41;2.40;98.70
16643;DHT22;8435;52.184;5.406;2022-12-18T13:08:22;2.40;98.80
16643;DHT22;8435;52.184;5.406;2022-12-18T13:10:49;2.40;98.50
16643;DHT22;8435;52.184;5.406;2022-12-18T13:13:48;2.50;98.60
16643;DHT22;8435;52.184;5.406;2022-12-18T13:16:18;2.50;98.70
16643;DHT22;8435;52.184;5.406;2022-12-18T13:18:49;2.50;99.10
16643;DHT22;8435;52.184;5.406;2022-12-18T13:21:21;2.50;98.70
16643;DHT22;8435;52.184;5.406;2022-12-18T13:23:50;2.50;98.70
16643;DHT22;8435;52.184;5.406;2022-12-18T13:26:31;2.50;98.70
16643;DHT22;8435;52.184;5.406;2022-12-18T13:29:02;2.60;98.60
16643;DHT22;8435;52.184;5.406;2022-12-18T13:34:34;2.60;98.50
16643;DHT22;8435;52.184;5.406;2022-12-18T13:37:39;2.60;98.70
16643;DHT22;8435;52.184;5.406;2022-12-18T13:43:31;2.60;98.40
16643;DHT22;8435;52.184;5.406;2022-12-18T13:46:01;2.60;98.60
16643;DHT22;8435;52.184;5.406;2022-12-18T13:48:32;2.60;98.50
16643;DHT22;8435;52.184;5.406;2022-12-18T13:51:03;2.60;98.30
16643;DHT22;8435;52.184;5.406;2022-12-18T13:53:36;2.60;98.40
16643;DHT22;8435;52.184;5.406;2022-12-18T13:56:04;2.60;98.20
16643;DHT22;8435;52.184;5.406;2022-12-18T13:58:31;2.60;98.40
16643;DHT22;8435;52.184;5.406;2022-12-18T14:00:58;2.60;98.40
16643;DHT22;8435;52.184;5.406;2022-12-18T14:03:29;2.60;98.40
16643;DHT22;8435;52.184;5.406;2022-12-18T14:06:03;2.60;98.40
16643;DHT22;8435;52.184;5.406;2022-12-18T14:08:36;2.60;98.30
16643;DHT22;8435;52.184;5.406;2022-12-18T14:11:05;2.60;98.30
16643;DHT22;8435;52.184;5.406;2022-12-18T14:13:34;2.70;98.40
16643;DHT22;8435;52.184;5.406;2022-12-18T14:16:04;2.70;98.30
16643;DHT22;8435;52.184;5.406;2022-12-18T14:18:38;2.70;98.20
16643;DHT22;8435;52.184;5.406;2022-12-18T14:21:06;2.70;97.90
16643;DHT22;8435;52.184;5.406;2022-12-18T14:23:42;2.70;97.90
16643;DHT22;8435;52.184;5.406;2022-12-18T14:26:22;2.70;98.00
16643;DHT22;8435;52.184;5.406;2022-12-18T14:28:49;2.70;98.10
16643;DHT22;8435;52.184;5.406;2022-12-18T14:31:20;2.70;97.90
16643;DHT22;8435;52.184;5.406;2022-12-18T14:33:46;2.70;98.00
16643;DHT22;8435;52.184;5.406;2022-12-18T14:36:17;2.70;98.20
16643;DHT22;8435;52.184;5.406;2022-12-18T14:38:49;2.70;98.20
16643;DHT22;8435;52.184;5.406;2022-12-18T14:41:18;2.70;98.10
16643;DHT22;8435;52.184;5.406;2022-12-18T14:43:47;2.70;98.00
16643;DHT22;8435;52.184;5.406;2022-12-18T14:46:30;2.70;97.90
16643;DHT22;8435;52.184;5.406;2022-12-18T14:49:00;2.80;97.80
16643;DHT22;8435;52.184;5.406;2022-12-18T14:51:30;2.80;98.00
16643;DHT22;8435;52.184;5.406;2022-12-18T14:53:58;2.80;98.00
16643;DHT22;8435;52.184;5.406;2022-12-18T14:56:27;2.80;97.90
16643;DHT22;8435;52.184;5.406;2022-12-18T14:58:56;2.80;97.90
16643;DHT22;8435;52.184;5.406;2022-12-18T15:01:27;2.80;97.70
16643;DHT22;8435;52.184;5.406;2022-12-18T15:03:56;2.80;97.80
16643;DHT22;8435;52.184;5.406;2022-12-18T15:06:42;2.80;97.80
16643;DHT22;8435;52.184;5.406;2022-12-18T15:09:22;2.80;97.60
16643;DHT22;8435;52.184;5.406;2022-12-18T15:11:49;2.80;97.60
16643;DHT22;8435;52.184;5.406;2022-12-18T15:14:31;2.80;97.50
16643;DHT22;8435;52.184;5.406;2022-12-18T15:17:02;2.80;97.60
16643;DHT22;8435;52.184;5.406;2022-12-18T15:19:37;2.80;97.60
16643;DHT22;8435;52.184;5.406;2022-12-18T15:22:20;2.80;97.60
16643;DHT22;8435;52.184;5.406;2022-12-18T15:24:48;2.80;97.60
16643;DHT22;8435;52.184;5.406;2022-12-18T15:27:23;2.80;97.60
16643;DHT22;8435;52.184;5.406;2022-12-18T15:30:22;2.80;97.40
16643;DHT22;8435;52.184;5.406;2022-12-18T15:32:50;2.80;97.30
16643;DHT22;8435;52.184;5.406;2022-12-18T15:35:22;2.80;97.60
16643;DHT22;8435;52.184;5.406;2022-12-18T15:37:51;2.80;97.60
16643;DHT22;8435;52.184;5.406;2022-12-18T15:40:20;2.80;97.60
16643;DHT22;8435;52.184;5.406;2022-12-18T15:42:48;2.80;97.40
16643;DHT22;8435;52.184;5.406;2022-12-18T15:45:39;2.80;97.30
16643;DHT22;8435;52.184;5.406;2022-12-18T15:48:19;2.80;97.40
16643;DHT22;8435;52.184;5.406;2022-12-18T15:50:47;2.80;97.30
16643;DHT22;8435;52.184;5.406;2022-12-18T15:53:16;2.80;97.30
16643;DHT22;8435;52.184;5.406;2022-12-18T15:55:43;2.80;97.30
16643;DHT22;8435;52.184;5.406;2022-12-18T15:58:27;2.80;97.20
16643;DHT22;8435;52.184;5.406;2022-12-18T16:00:54;2.80;97.30
16643;DHT22;8435;52.184;5.406;2022-12-18T16:03:22;2.80;97.30
16643;DHT22;8435;52.184;5.406;2022-12-18T16:05:49;2.80;97.50
16643;DHT22;8435;52.184;5.406;2022-12-18T16:08:17;2.80;96.90
16643;DHT22;8435;52.184;5.406;2022-12-18T16:10:44;2.80;97.10
16643;DHT22;8435;52.184;5.406;2022-12-18T16:13:11;2.80;97.10
16643;DHT22;8435;52.184;5.406;2022-12-18T16:15:38;2.80;97.00
16643;DHT22;8435;52.184;5.406;2022-12-18T16:18:05;2.80;97.00
16643;DHT22;8435;52.184;5.406;2022-12-18T16:20:35;2.80;97.30